North River, NY

7:36 AM EDT on September 22, 2014 (GMT -0400)
Ruby Mountain View Dr, Garnet Hill | Change Station
CLOSE
Current Station
Personal Weather Station
Location: North River, NY
Elevation: 1772 ft
Nearby Weather Stations

Elev 1772 ft 43.72 °N, 74.10 °W | Updated 1 second ago

Overcast
Overcast
45.5 °F
Feels Like 46 °F
N
0.0
Wind Variable Wind from WNW
Gusts 1.0 mph

Today
High -- | Low -- °F
--% Chance of Precip.
Yesterday
High -- | Low -- °F
Precip. -- in
6:43 AM 6:53 PM
Waning Crescent, 3% visible
Pressure 29.67 in
Visibility 10.0 miles
Clouds Few 4500 ft
Windchill 46 °F
Dew Point 43 °F
Humidity 92%
Rainfall 0.01 in
Snow Depth Not available.
UV 0 out of 12
Pollen 1.20 out of 12
Air Quality Not available.
Flu Activity Not available.
METAR KGFL 221053Z AUTO 24005KT 10SM FEW045 15/12 A2967 RMK AO2 SLP046 T01500117

More Conditions Fewer Conditions

Pressure 29.67 in
Visibility 10.0 miles
Clouds Few 4500 ft
Windchill 46 °F
Dew Point 43 °F
Humidity 92%
Rainfall 0.01 in
Snow Depth Not available.
UV 0 out of 12
Pollen 1.20 out of 12
Air Quality Not available.
Flu Activity Not available.
METAR KGFL 221053Z AUTO 24005KT 10SM FEW045 15/12 A2967 RMK AO2 SLP046 T01500117

More Conditions Fewer Conditions

10-Day Weather Forecast

Almanac

Astronomy

Sep. 22, 2014 Rise Set
Actual Time 6:43 AM EDT 6:53 PM EDT
Civil Twilight 6:14 AM EDT 7:22 PM EDT
Nautical Twilight 5:41 AM EDT 7:55 PM EDT
Astronomical Twilight 5:06 AM EDT 8:30 PM EDT
Moon 5:07 AM EDT 6:01 PM EDT
Length of Visible Light 13h 07m
Length of Day
12h 10m
Tomorrow will be 2m 59s shorter.
Waning Crescent, 3% of the Moon is Illuminated
Today
Waning Crescent
Sep 24
New
Oct 1
First Quarter
Oct 8
Full
Oct 15
Last Quarter

Today's Extremes

State Highs State Lows

Community

WunderPhotos

Upload Photos

1,755,409 photos uploaded!

Nearby

Air Quality

  Air Quality AQ Index Pollutant
Monday Good
OZONE
Monday Good
PM2.5

Snow Depth

Station Depth Elevation
No new snow has been reported.

Earthquake Activity

City Distance Mag. Time & Date
No recent earthquake activity has been reported nearby.
Minimum magnitude displayed is 2.5.

Coastal Water Temperatures

Place Temperature
No Stations Reporting

Nearby Weather Stations